Time;durP1;ratioP1;P1;durP2;ratioP2;P2;SDS_P1;SDS_P2;PMS_P1;PMS_P2;Temp;Humidity;BMP_temperature;BMP_pressure;BME280_temperature;BME280_humidity;BME280_pressure;Samples;Min_cycle;Max_cycle;Signal;HPM_P1;HPM_P2
2021/07/25 00:00:56;;;;;;;11.18;10.18;;;;;;;27.14;46.80;99888.80;1739546;81;21009;-71
2021/07/25 00:03:24;;;;;;;10.90;9.80;;;;;;;27.13;46.81;99889.88;1737846;81;21010;-71
2021/07/25 00:05:50;;;;;;;11.05;9.98;;;;;;;27.11;46.64;99889.34;1717424;82;21278;-72
2021/07/25 00:08:16;;;;;;;10.78;9.73;;;;;;;27.11;46.64;99889.89;1714010;82;21152;-72
2021/07/25 00:10:46;;;;;;;11.25;10.20;;;;;;;27.09;46.69;99886.07;1730159;81;21990;-73
2021/07/25 00:13:15;;;;;;;11.05;10.00;;;;;;;27.07;46.76;99886.34;1735630;81;21031;-72
2021/07/25 00:15:43;;;;;;;11.15;10.15;;;;;;;27.06;46.73;99878.43;1745791;81;22006;-73
2021/07/25 00:18:10;;;;;;;11.88;10.20;;;;;;;27.04;46.56;99877.89;1727961;81;21045;-72
2021/07/25 00:20:36;;;;;;;10.58;9.63;;;;;;;27.02;46.50;99880.91;1716259;81;21293;-72
2021/07/25 00:23:03;;;;;;;11.03;9.88;;;;;;;27.02;46.53;99884.16;1717634;81;21101;-72
2021/07/25 00:25:32;;;;;;;11.05;10.00;;;;;;;27.00;46.69;99884.98;1725842;82;21068;-71
2021/07/25 00:27:58;;;;;;;11.45;10.45;;;;;;;26.98;46.74;99887.98;1723815;81;21583;-71
2021/07/25 00:30:26;;;;;;;11.33;9.90;;;;;;;26.97;46.94;99887.72;1697246;82;21002;-72
2021/07/25 00:32:53;;;;;;;10.90;9.80;;;;;;;26.97;47.07;99884.19;1728961;82;21057;-71
2021/07/25 00:35:21;;;;;;;14.07;10.82;;;;;;;26.96;47.11;99881.17;1713999;82;21809;-74
2021/07/25 00:37:48;;;;;;;10.90;9.73;;;;;;;26.94;46.97;99872.45;1714414;81;21497;-73
2021/07/25 00:40:35;;;;;;;12.43;10.53;;;;;;;26.94;46.97;99878.72;1720429;82;21063;-74
2021/07/25 00:43:03;;;;;;;10.90;9.80;;;;;;;26.93;47.03;99883.91;1727618;81;21481;-73
2021/07/25 00:45:31;;;;;;;11.05;9.95;;;;;;;26.90;47.02;99876.27;1713393;82;21525;-73
2021/07/25 00:47:58;;;;;;;12.18;9.85;;;;;;;26.88;47.13;99875.17;1703520;82;21133;-72
2021/07/25 00:50:26;;;;;;;10.40;9.38;;;;;;;26.88;47.33;99877.09;1687261;84;21046;-73
2021/07/25 00:52:53;;;;;;;11.63;10.43;;;;;;;26.87;47.39;99879.00;1684954;84;21103;-74
2021/07/25 00:55:20;;;;;;;10.82;9.78;;;;;;;26.85;47.43;99877.09;1695009;84;21581;-73
2021/07/25 00:57:48;;;;;;;10.50;9.40;;;;;;;26.85;47.47;99881.73;1679481;84;21671;-72
2021/07/25 01:00:16;;;;;;;11.00;9.90;;;;;;;26.84;47.48;99874.09;1682411;84;21294;-72
2021/07/25 01:03:10;;;;;;;11.57;10.53;;;;;;;26.84;47.57;99878.17;1691728;83;21300;-72
2021/07/25 01:06:18;;;;;;;12.23;10.43;;;;;;;26.75;47.57;99868.91;1707108;82;21082;-74
2021/07/25 01:08:53;;;;;;;13.25;10.23;;;;;;;26.80;47.56;99881.17;1690368;84;21094;-71
2021/07/25 01:11:20;;;;;;;11.18;10.18;;;;;;;26.77;47.61;99884.98;1694083;83;21109;-71
2021/07/25 01:13:51;;;;;;;10.93;9.98;;;;;;;26.75;47.62;99889.34;1706949;83;21153;-70
2021/07/25 01:16:19;;;;;;;13.45;10.88;;;;;;;26.75;47.72;99887.17;1704872;83;21047;-70
2021/07/25 01:18:49;;;;;;;11.43;10.38;;;;;;;26.73;47.77;99890.16;1700591;83;21530;-72
2021/07/25 01:21:18;;;;;;;11.97;10.78;;;;;;;26.72;47.81;99891.27;1704267;83;21076;-72
2021/07/25 01:23:46;;;;;;;13.60;10.75;;;;;;;26.71;47.71;99890.97;1703130;82;21133;-72
2021/07/25 01:26:14;;;;;;;11.65;10.32;;;;;;;26.69;47.75;99891.80;1700072;82;21835;-72
2021/07/25 01:28:46;;;;;;;12.20;10.55;;;;;;;26.70;47.67;99893.44;1690481;83;21533;-74
2021/07/25 01:31:27;;;;;;;11.95;10.72;;;;;;;26.69;47.67;99893.16;1692115;83;21057;-73
2021/07/25 01:33:54;;;;;;;10.78;9.55;;;;;;;26.68;47.60;99880.64;1697541;82;21554;-73
2021/07/25 01:36:20;;;;;;;11.57;10.38;;;;;;;26.66;47.62;99881.45;1710460;82;21667;-73
2021/07/25 01:38:46;;;;;;;11.12;10.03;;;;;;;26.64;47.68;99883.08;1698519;83;21315;-74
2021/07/25 01:41:15;;;;;;;11.50;10.30;;;;;;;26.64;47.65;99887.72;1650223;83;21548;-73
2021/07/25 01:43:48;;;;;;;10.85;9.80;;;;;;;26.64;47.77;99887.72;1689476;83;21547;-73
2021/07/25 01:46:15;;;;;;;12.03;10.75;;;;;;;26.63;47.75;99878.70;1670548;84;21117;-72
2021/07/25 01:48:42;;;;;;;10.72;9.68;;;;;;;26.63;47.86;99886.07;1676161;83;21559;-73
2021/07/25 01:51:11;;;;;;;11.50;10.40;;;;;;;26.63;47.89;99888.80;1669568;83;21369;-73
2021/07/25 01:53:38;;;;;;;11.33;10.32;;;;;;;26.62;47.97;99884.45;1730303;80;21499;-72
2021/07/25 01:56:04;;;;;;;12.40;11.30;;;;;;;26.62;47.99;99889.91;1736171;80;21198;-72
2021/07/25 01:58:33;;;;;;;11.12;10.13;;;;;;;26.61;48.03;99886.89;1736387;80;21022;-73
2021/07/25 02:00:59;;;;;;;11.85;10.65;;;;;;;26.61;48.08;99886.89;1727870;81;21077;-73
2021/07/25 02:03:26;;;;;;;11.35;10.23;;;;;;;26.61;48.09;99890.97;1731473;80;21750;-74
2021/07/25 02:05:53;;;;;;;11.00;9.90;;;;;;;26.59;48.13;99890.43;1739372;81;21027;-73
2021/07/25 02:08:20;;;;;;;11.68;10.28;;;;;;;26.58;48.13;99892.84;1732471;80;21093;-72
2021/07/25 02:10:49;;;;;;;12.50;11.20;;;;;;;26.58;48.15;99896.92;1752145;80;21035;-73
2021/07/25 02:13:16;;;;;;;11.03;9.73;;;;;;;26.58;48.16;99896.92;1738542;81;21598;-72
2021/07/25 02:15:44;;;;;;;11.25;10.25;;;;;;;26.58;48.17;99896.92;1728213;82;22447;-73
2021/07/25 02:18:10;;;;;;;11.30;10.30;;;;;;;26.57;48.13;99898.02;1734984;82;21034;-72
2021/07/25 02:20:37;;;;;;;12.00;10.72;;;;;;;26.56;48.10;99898.58;1725956;80;21621;-73
2021/07/25 02:23:03;;;;;;;11.60;10.50;;;;;;;26.55;48.10;99899.66;1732546;80;21072;-73
2021/07/25 02:25:30;;;;;;;13.43;10.38;;;;;;;26.55;48.11;99901.56;1731843;81;21065;-74
2021/07/25 02:27:56;;;;;;;12.73;11.03;;;;;;;26.53;48.13;99904.55;1726983;82;21090;-74
2021/07/25 02:30:22;;;;;;;12.95;10.38;;;;;;;26.54;48.17;99908.93;1726121;80;21545;-72
2021/07/25 02:32:49;;;;;;;11.68;10.55;;;;;;;26.54;48.17;99909.45;1725016;80;21106;-73
2021/07/25 02:35:16;;;;;;;13.93;10.82;;;;;;;26.53;48.17;99911.37;1702544;81;21035;-73
2021/07/25 02:37:43;;;;;;;12.18;10.68;;;;;;;26.52;48.12;99906.18;1737527;80;21533;-72
2021/07/25 02:40:10;;;;;;;12.40;11.22;;;;;;;26.51;48.17;99909.45;1732731;81;21831;-74
2021/07/25 02:42:37;;;;;;;10.68;9.68;;;;;;;26.49;48.13;99913.80;1738724;80;21577;-73
2021/07/25 02:45:05;;;;;;;12.07;10.70;;;;;;;26.49;48.24;99913.80;1697593;82;21053;-73
2021/07/25 02:47:32;;;;;;;10.82;9.88;;;;;;;26.48;48.26;99909.46;1692205;84;21733;-74
2021/07/25 02:49:58;;;;;;;12.45;10.58;;;;;;;26.47;48.25;99913.27;1681467;84;21522;-74
2021/07/25 02:52:27;;;;;;;11.90;10.80;;;;;;;26.47;48.21;99915.17;1697681;83;21074;-75
2021/07/25 02:54:54;;;;;;;11.63;10.55;;;;;;;26.48;48.31;99922.23;1691302;83;22076;-74
2021/07/25 03:00:17;;;;;;;12.58;11.30;;;;;;;26.49;48.35;99923.34;1802215;77;22629;-73
2021/07/25 03:02:43;;;;;;;11.53;10.50;;;;;;;26.42;48.36;99918.69;1763003;78;21085;-74
2021/07/25 03:05:11;;;;;;;13.00;11.30;;;;;;;26.44;48.30;99919.78;1771070;78;21851;-75
2021/07/25 03:07:37;;;;;;;15.20;10.80;;;;;;;26.43;48.26;99924.42;1787435;79;21525;-74
2021/07/25 03:10:06;;;;;;;12.98;11.70;;;;;;;26.44;48.17;99923.88;1777080;78;21077;-75
2021/07/25 03:12:33;;;;;;;12.43;10.75;;;;;;;26.44;48.10;99924.71;1773375;78;20981;-75
2021/07/25 03:14:59;;;;;;;12.50;11.20;;;;;;;26.43;48.16;99927.70;1773793;78;21049;-76
2021/07/25 03:17:26;;;;;;;13.03;11.83;;;;;;;26.42;48.13;99930.13;1775618;79;21134;-77
2021/07/25 03:19:54;;;;;;;13.03;11.08;;;;;;;26.42;48.19;99935.58;1764659;78;21121;-76
2021/07/25 03:22:22;;;;;;;12.50;10.65;;;;;;;26.42;48.23;99936.94;1775898;80;21017;-71
2021/07/25 03:24:49;;;;;;;11.70;10.50;;;;;;;26.42;48.34;99936.39;1708683;81;21057;-71
2021/07/25 03:27:15;;;;;;;11.73;10.60;;;;;;;26.42;48.39;99941.84;1715678;81;21057;-71
2021/07/25 03:29:41;;;;;;;12.10;11.00;;;;;;;26.41;48.35;99937.48;1703781;81;21123;-71
2021/07/25 03:32:08;;;;;;;18.00;12.03;;;;;;;26.42;48.37;99941.03;1718402;82;21525;-71
2021/07/25 03:34:34;;;;;;;12.18;10.98;;;;;;;26.42;48.41;99934.22;1716990;81;21114;-72
2021/07/25 03:37:01;;;;;;;14.95;11.40;;;;;;;26.42;48.43;99945.11;1719371;81;21058;-71
2021/07/25 03:39:28;;;;;;;12.90;11.50;;;;;;;26.42;48.49;99944.56;1704179;81;21565;-71
2021/07/25 03:41:55;;;;;;;12.23;11.03;;;;;;;26.42;48.54;99941.03;1709736;81;21049;-73
2021/07/25 03:44:21;;;;;;;11.83;10.78;;;;;;;26.42;48.63;99946.47;1723674;81;21014;-73
2021/07/25 03:46:48;;;;;;;12.88;11.57;;;;;;;26.42;48.66;99945.92;1717343;83;21049;-73
2021/07/25 03:49:15;;;;;;;13.80;11.03;;;;;;;26.43;48.71;99955.75;1714946;81;21080;-73
2021/07/25 03:51:41;;;;;;;14.35;11.70;;;;;;;26.44;48.76;99956.03;1708396;81;21089;-73
2021/07/25 03:54:08;;;;;;;16.05;11.12;;;;;;;26.44;48.81;99960.12;1705262;82;21096;-72
2021/07/25 03:56:35;;;;;;;14.13;11.10;;;;;;;26.46;48.87;99958.47;1720705;82;22074;-73
2021/07/25 03:59:02;;;;;;;13.83;11.88;;;;;;;26.47;48.93;99956.03;1695085;83;21066;-74
2021/07/25 04:01:28;;;;;;;13.15;11.95;;;;;;;26.48;48.91;99961.73;1659584;84;21089;-73
2021/07/25 04:03:55;;;;;;;11.78;10.68;;;;;;;26.50;48.92;99956.84;1676440;84;21054;-73
2021/07/25 04:06:21;;;;;;;12.68;11.10;;;;;;;26.49;48.90;99956.03;1692065;83;21215;-73
2021/07/25 04:08:48;;;;;;;12.73;11.43;;;;;;;26.52;48.88;99959.30;1696376;83;21065;-73
2021/07/25 04:11:19;;;;;;;12.53;11.28;;;;;;;26.52;48.88;99953.33;1690197;83;21057;-69
2021/07/25 04:13:47;;;;;;;12.63;11.43;;;;;;;26.55;48.86;99962.86;1696326;83;21093;-70
2021/07/25 04:16:14;;;;;;;18.95;16.87;;;;;;;26.56;48.87;99957.15;1692021;83;21066;-70
2021/07/25 04:18:40;;;;;;;19.70;14.40;;;;;;;26.58;48.87;99962.30;1699331;83;23104;-71
2021/07/25 04:21:07;;;;;;;15.68;12.47;;;;;;;26.60;48.93;99964.28;1684423;84;21483;-70
2021/07/25 04:23:34;;;;;;;14.95;11.97;;;;;;;26.62;48.88;99964.27;1731007;81;21082;-70
2021/07/25 04:26:01;;;;;;;14.03;12.03;;;;;;;26.65;48.82;99968.36;1744137;81;21160;-69
2021/07/25 04:28:28;;;;;;;13.30;12.00;;;;;;;26.66;48.68;99961.28;1682647;85;21027;-70
2021/07/25 04:30:56;;;;;;;12.45;11.10;;;;;;;26.70;48.62;99960.75;1738643;81;21787;-71
2021/07/25 04:33:23;;;;;;;13.03;11.73;;;;;;;26.73;48.70;99965.64;1732099;81;21585;-70
2021/07/25 04:35:54;;;;;;;15.93;11.85;;;;;;;26.75;48.63;99959.38;1729285;81;21440;-70
2021/07/25 04:38:21;;;;;;;13.98;12.58;;;;;;;26.75;48.67;99959.38;1677395;84;21125;-70
2021/07/25 04:40:57;;;;;;;14.70;12.63;;;;;;;26.77;48.56;99960.77;1693665;83;21535;-70
2021/07/25 04:43:24;;;;;;;13.43;12.07;;;;;;;26.80;48.43;99962.13;1686297;83;21099;-71
2021/07/25 04:45:55;;;;;;;13.43;12.07;;;;;;;26.84;48.40;99972.20;1699351;83;21151;-70
2021/07/25 04:48:43;;;;;;;13.40;12.00;;;;;;;26.87;48.35;99977.67;1685480;84;21517;-69
2021/07/25 04:51:10;;;;;;;12.50;11.30;;;;;;;26.90;48.38;99972.22;1678068;83;21058;-68
2021/07/25 04:53:38;;;;;;;13.08;11.68;;;;;;;26.91;48.51;99975.20;1738268;81;21136;-69
2021/07/25 04:56:11;;;;;;;12.55;11.35;;;;;;;26.92;48.58;99979.03;1729000;81;21879;-70
2021/07/25 04:58:50;;;;;;;14.07;11.90;;;;;;;26.94;48.62;99980.94;1731302;81;21034;-68
2021/07/25 05:01:27;;;;;;;12.93;11.65;;;;;;;26.95;48.64;99977.69;1740050;81;21034;-69
2021/07/25 05:03:55;;;;;;;12.73;11.43;;;;;;;26.97;48.55;99976.87;1733900;81;22223;-69
2021/07/25 05:06:22;;;;;;;13.40;11.75;;;;;;;26.99;48.63;99981.50;1734855;81;21090;-72
2021/07/25 05:08:49;;;;;;;12.45;11.25;;;;;;;27.00;48.69;99982.57;1718979;81;21973;-70
2021/07/25 05:11:33;;;;;;;13.93;12.40;;;;;;;27.04;48.75;99980.97;1713563;81;21015;-75
2021/07/25 05:14:00;;;;;;;13.62;11.93;;;;;;;27.06;48.96;99984.76;1711577;82;21074;-74
2021/07/25 05:16:31;;;;;;;13.55;12.00;;;;;;;27.10;49.20;99985.04;1730791;81;21077;-74
2021/07/25 05:19:29;;;;;;;13.95;11.45;;;;;;;27.12;49.48;99984.22;1740170;81;21077;-74
2021/07/25 05:22:30;;;;;;;13.93;11.35;;;;;;;27.15;49.52;99987.78;1688002;81;22010;-72
2021/07/25 05:24:56;;;;;;;13.40;12.15;;;;;;;27.16;49.58;99987.51;1731583;81;21085;-73
2021/07/25 05:27:23;;;;;;;13.45;11.12;;;;;;;27.18;49.73;99987.24;1729319;81;21530;-74
2021/07/25 05:29:52;;;;;;;12.78;11.48;;;;;;;27.20;50.01;99991.33;1750951;81;21011;-73
2021/07/25 05:32:21;;;;;;;12.78;11.48;;;;;;;27.22;50.13;99989.70;1753481;81;21090;-73
2021/07/25 05:34:48;;;;;;;12.85;11.53;;;;;;;27.25;50.18;99992.73;1741838;81;21860;-73
2021/07/25 05:37:14;;;;;;;12.00;10.72;;;;;;;27.28;50.25;99994.64;1742455;82;21084;-73
2021/07/25 05:39:40;;;;;;;12.65;11.40;;;;;;;27.30;50.25;99989.17;1731943;82;21049;-73
2021/07/25 05:42:07;;;;;;;11.18;10.03;;;;;;;27.33;50.22;99985.07;1739606;82;21014;-72
2021/07/25 05:44:34;;;;;;;12.55;10.80;;;;;;;27.37;50.10;99991.09;1725849;81;21567;-74
2021/07/25 05:47:00;;;;;;;13.18;11.85;;;;;;;27.42;49.95;99997.08;1732740;82;21062;-73
2021/07/25 05:49:27;;;;;;;13.22;11.93;;;;;;;27.45;49.81;99991.08;1735752;81;21062;-73
2021/07/25 05:51:53;;;;;;;14.38;11.88;;;;;;;27.49;49.66;99996.26;1733767;81;21530;-73
2021/07/25 05:54:20;;;;;;;14.30;11.25;;;;;;;27.52;49.56;99992.16;1699827;82;21113;-73
2021/07/25 05:56:47;;;;;;;15.60;11.50;;;;;;;27.55;49.54;99994.34;1731124;81;21074;-71
2021/07/25 05:59:13;;;;;;;15.28;11.83;;;;;;;27.59;49.40;99985.33;1742181;80;21101;-74
2021/07/25 06:01:41;;;;;;;12.80;11.50;;;;;;;27.63;49.34;99989.13;1750823;79;21053;-69
2021/07/25 06:04:07;;;;;;;15.18;11.65;;;;;;;27.67;49.32;99983.95;1762331;80;21109;-70
2021/07/25 06:06:34;;;;;;;14.33;11.83;;;;;;;27.70;49.35;99988.02;1757174;79;21540;-68
2021/07/25 06:09:03;;;;;;;12.15;11.00;;;;;;;27.75;49.36;99986.66;1762638;80;21018;-70
2021/07/25 06:11:28;;;;;;;12.55;11.25;;;;;;;27.79;49.33;99986.37;1764129;80;21955;-69
2021/07/25 06:13:56;;;;;;;15.83;12.03;;;;;;;27.82;49.27;99986.64;1754627;79;20993;-71
2021/07/25 06:16:22;;;;;;;11.60;10.43;;;;;;;27.86;49.08;99981.45;1752450;79;21042;-70
2021/07/25 06:18:49;;;;;;;12.05;10.85;;;;;;;27.89;49.01;99985.00;1764217;79;21062;-69
2021/07/25 06:21:17;;;;;;;12.75;11.55;;;;;;;27.94;48.72;99984.19;1749069;80;21518;-71
2021/07/25 06:23:43;;;;;;;13.53;11.18;;;;;;;27.96;48.65;99985.54;1759940;79;21550;-68
2021/07/25 06:26:10;;;;;;;13.43;12.05;;;;;;;28.00;48.52;99987.17;1765779;79;21070;-72
2021/07/25 06:28:36;;;;;;;13.15;11.25;;;;;;;28.03;48.43;99987.99;1762430;80;21085;-68
2021/07/25 06:31:02;;;;;;;13.40;11.57;;;;;;;28.06;48.31;99986.05;1755034;79;21034;-69
2021/07/25 06:33:29;;;;;;;13.85;11.68;;;;;;;28.08;48.18;99992.05;1711367;82;21117;-70
2021/07/25 06:35:55;;;;;;;12.85;11.50;;;;;;;28.11;48.18;99989.33;1726060;81;21115;-68
2021/07/25 06:38:22;;;;;;;12.78;11.48;;;;;;;28.15;48.04;99989.04;1756063;79;21337;-70
2021/07/25 06:40:54;;;;;;;13.32;12.07;;;;;;;28.17;47.83;99984.92;1756158;80;20981;-69
2021/07/25 06:43:21;;;;;;;15.03;11.53;;;;;;;28.19;47.77;99988.75;1705711;82;21533;-74
2021/07/25 06:45:50;;;;;;;13.68;11.55;;;;;;;28.22;47.72;99990.90;1764264;79;21076;-70
2021/07/25 06:48:19;;;;;;;12.58;11.40;;;;;;;28.25;47.69;99994.45;1761971;79;21167;-69
2021/07/25 06:50:50;;;;;;;13.30;11.75;;;;;;;28.26;47.75;99992.00;1761907;79;21023;-69
2021/07/25 06:53:21;;;;;;;14.53;12.00;;;;;;;28.29;47.84;99998.25;1754163;80;21009;-68
2021/07/25 06:55:50;;;;;;;13.60;12.30;;;;;;;28.32;47.79;100010.00;1762788;80;21022;-69
2021/07/25 06:58:17;;;;;;;13.55;12.15;;;;;;;28.32;47.82;100008.63;1757055;79;21035;-69
2021/07/25 07:00:44;;;;;;;16.80;12.98;;;;;;;28.34;47.88;100013.27;1769453;80;22131;-69
2021/07/25 07:03:10;;;;;;;15.13;11.73;;;;;;;28.35;47.95;100009.42;1765364;79;21081;-72
2021/07/25 07:05:37;;;;;;;14.98;13.22;;;;;;;28.38;47.93;100013.53;1771683;79;21046;-73
2021/07/25 07:08:05;;;;;;;14.45;12.93;;;;;;;28.40;47.86;100014.06;1778240;79;21025;-72
2021/07/25 07:10:37;;;;;;;13.93;12.53;;;;;;;28.42;47.86;100015.41;1764578;80;21100;-70
2021/07/25 07:13:07;;;;;;;16.45;12.28;;;;;;;28.47;47.72;100020.58;1767634;79;21062;-69
2021/07/25 07:15:37;;;;;;;15.83;12.03;;;;;;;28.48;47.62;100015.39;1769058;79;21520;-70
2021/07/25 07:18:04;;;;;;;13.85;12.07;;;;;;;28.49;47.58;100012.39;1765846;80;21542;-69
2021/07/25 07:20:31;;;;;;;13.65;11.33;;;;;;;28.53;47.56;100016.75;1724365;80;21077;-69
2021/07/25 07:23:03;;;;;;;13.55;12.05;;;;;;;28.54;47.45;100019.77;1780302;79;21368;-71
2021/07/25 07:25:33;;;;;;;19.12;12.43;;;;;;;28.55;47.42;100014.02;1762056;79;24638;-71
2021/07/25 07:28:00;;;;;;;15.38;12.20;;;;;;;28.56;47.35;100014.84;1769912;80;21085;-70
2021/07/25 07:30:27;;;;;;;13.90;11.35;;;;;;;28.57;47.24;100009.66;1755298;79;21033;-71
2021/07/25 07:32:53;;;;;;;16.05;12.65;;;;;;;28.59;47.16;100009.63;1772300;79;22056;-71
2021/07/25 07:35:23;;;;;;;15.98;11.85;;;;;;;28.62;47.05;100004.95;1778562;79;21548;-69
2021/07/25 07:37:50;;;;;;;15.90;11.48;;;;;;;28.64;46.33;100010.14;1788251;79;21601;-70
2021/07/25 07:40:18;;;;;;;13.55;11.70;;;;;;;28.63;46.18;100005.23;1770429;79;20978;-70
2021/07/25 07:42:44;;;;;;;15.50;11.85;;;;;;;28.69;45.96;100013.41;1786764;79;21123;-70
2021/07/25 07:45:11;;;;;;;17.00;12.37;;;;;;;28.72;45.82;100009.53;1712210;82;21037;-70
2021/07/25 07:47:37;;;;;;;15.88;11.33;;;;;;;28.73;45.89;100008.45;1758838;79;21014;-70
2021/07/25 07:50:05;;;;;;;12.23;10.90;;;;;;;28.75;46.04;100012.27;1776765;80;21114;-70
2021/07/25 07:52:31;;;;;;;21.33;10.55;;;;;;;28.75;45.69;100015.01;1771769;80;21013;-69
2021/07/25 07:54:57;;;;;;;16.80;11.05;;;;;;;28.76;45.56;100015.26;1712950;82;21593;-70
2021/07/25 07:57:24;;;;;;;14.13;11.40;;;;;;;28.77;45.00;100019.09;1780682;79;21050;-71
2021/07/25 07:59:50;;;;;;;13.03;10.70;;;;;;;28.79;44.83;100017.44;1758170;79;21022;-71
2021/07/25 08:02:17;;;;;;;12.25;10.90;;;;;;;28.80;44.36;100016.33;1769153;79;21134;-71
2021/07/25 08:04:45;;;;;;;14.55;10.43;;;;;;;28.82;44.72;100020.98;1764511;79;21062;-69
2021/07/25 08:07:11;;;;;;;11.57;9.60;;;;;;;28.83;44.86;100022.05;1714045;82;21097;-68
2021/07/25 08:09:38;;;;;;;13.00;10.60;;;;;;;28.84;44.88;100022.89;1768206;79;21087;-70
2021/07/25 08:12:07;;;;;;;13.32;10.15;;;;;;;28.86;44.71;100020.69;1766232;79;21077;-71
2021/07/25 08:14:34;;;;;;;12.10;10.72;;;;;;;28.87;43.43;100019.56;1779167;79;21114;-70
2021/07/25 08:17:00;;;;;;;10.75;9.33;;;;;;;28.89;42.40;100016.56;1777031;79;20987;-71
2021/07/25 08:19:27;;;;;;;14.33;9.25;;;;;;;28.92;41.39;100024.20;1767547;80;21574;-71
2021/07/25 08:21:54;;;;;;;12.73;10.15;;;;;;;28.94;41.84;100020.64;1723320;82;21105;-69
2021/07/25 08:24:20;;;;;;;13.95;9.18;;;;;;;28.98;42.35;100024.44;1770146;80;21045;-71
2021/07/25 08:26:47;;;;;;;10.25;9.25;;;;;;;28.98;42.99;100017.04;1772966;79;22368;-68
2021/07/25 08:29:13;;;;;;;12.55;8.78;;;;;;;28.99;43.21;100019.22;1754127;79;21006;-69
2021/07/25 08:31:39;;;;;;;12.10;9.88;;;;;;;28.99;43.48;100017.32;1757634;79;21129;-69
2021/07/25 08:34:06;;;;;;;10.38;9.28;;;;;;;29.00;43.43;100021.67;1781122;79;21077;-69
2021/07/25 08:36:32;;;;;;;10.60;9.50;;;;;;;29.02;43.41;100017.29;1770133;79;21032;-70
2021/07/25 08:38:58;;;;;;;12.18;9.53;;;;;;;29.01;43.44;100014.27;1751915;79;21125;-70
2021/07/25 08:42:01;;;;;;;11.33;9.75;;;;;;;29.01;43.36;100015.12;1777552;79;21009;-69
2021/07/25 08:44:50;;;;;;;11.05;9.95;;;;;;;29.02;43.34;100011.83;1689315;82;21067;-70
2021/07/25 08:47:23;;;;;;;13.58;9.58;;;;;;;29.02;43.05;100017.29;1767219;79;21302;-71
2021/07/25 08:49:59;;;;;;;10.03;8.93;;;;;;;29.00;42.19;100020.30;1774764;79;21573;-72
2021/07/25 08:52:32;;;;;;;13.98;9.88;;;;;;;29.00;41.95;100013.47;1774986;80;22204;-71
2021/07/25 08:55:01;;;;;;;;;;;;;;;29.01;42.10;100019.22;1769834;80;21605;-69
2021/07/25 08:57:30;;;;;;;9.50;8.53;;;;;;;29.02;42.41;100023.57;1760256;79;20157;-70
2021/07/25 08:59:57;;;;;;;10.43;9.28;;;;;;;28.97;42.02;100025.52;1763337;79;21506;-72
2021/07/25 09:02:31;;;;;;;10.48;8.95;;;;;;;28.99;41.59;100020.58;1756602;80;21062;-70
2021/07/25 09:04:58;;;;;;;9.98;8.85;;;;;;;29.01;42.07;100022.48;1750736;79;21262;-69
2021/07/25 09:07:29;;;;;;;10.82;8.93;;;;;;;29.03;42.35;100027.11;1764506;79;21007;-70
2021/07/25 09:10:06;;;;;;;10.43;8.80;;;;;;;29.05;42.33;100026.84;1762907;80;21092;-70
2021/07/25 09:12:34;;;;;;;9.23;8.33;;;;;;;29.06;42.38;100027.12;1771184;80;21109;-71
2021/07/25 09:15:05;;;;;;;12.98;7.97;;;;;;;29.07;42.56;100018.63;1767574;80;21023;-69
2021/07/25 09:17:31;;;;;;;9.95;8.68;;;;;;;29.09;42.18;100021.90;1760231;79;22183;-71
2021/07/25 09:20:23;;;;;;;8.93;8.13;;;;;;;29.09;42.20;100017.80;1750591;80;21473;-69
2021/07/25 09:22:54;;;;;;;8.95;8.05;;;;;;;29.10;41.89;100019.41;1734468;80;21125;-71
2021/07/25 09:25:32;;;;;;;8.45;7.65;;;;;;;29.11;41.63;100022.43;1772949;79;21062;-69
2021/07/25 09:28:04;;;;;;;10.65;8.90;;;;;;;29.12;40.68;100015.03;1747477;80;21027;-68
2021/07/25 09:30:31;;;;;;;8.63;7.72;;;;;;;29.13;41.03;100022.99;1757564;79;21155;-73
2021/07/25 09:32:58;;;;;;;8.10;7.40;;;;;;;29.15;41.04;100021.34;1756983;79;21574;-70
2021/07/25 09:35:40;;;;;;;8.40;7.60;;;;;;;29.17;41.13;100025.98;1763391;80;21026;-71
2021/07/25 09:38:10;;;;;;;7.85;7.17;;;;;;;29.19;40.93;100021.84;1752981;79;21018;-72
2021/07/25 09:40:37;;;;;;;9.08;7.30;;;;;;;29.19;40.93;100021.84;1756710;79;21054;-73
2021/07/25 09:43:21;;;;;;;8.13;7.37;;;;;;;29.20;41.18;100027.56;1769414;79;21134;-73
2021/07/25 09:45:54;;;;;;;8.05;7.25;;;;;;;29.21;41.15;100030.58;1747168;79;21061;-73
2021/07/25 09:48:27;;;;;;;8.25;7.45;;;;;;;29.23;40.99;100033.59;1762816;80;21232;-73
2021/07/25 09:50:57;;;;;;;8.45;7.67;;;;;;;29.23;40.94;100035.77;1755380;80;21062;-72
2021/07/25 09:53:23;;;;;;;7.67;6.97;;;;;;;29.23;40.69;100030.30;1766159;80;21565;-73
2021/07/25 09:55:52;;;;;;;7.55;6.70;;;;;;;29.23;40.85;100030.30;1768541;80;21149;-71
2021/07/25 09:58:33;;;;;;;8.40;7.70;;;;;;;29.25;40.80;100030.02;1760707;79;21002;-72
2021/07/25 10:00:59;;;;;;;7.75;6.85;;;;;;;29.25;39.78;100034.94;1748594;80;21542;-73
2021/07/25 10:03:32;;;;;;;8.00;7.30;;;;;;;29.25;40.16;100032.76;1758476;80;21042;-72
2021/07/25 10:05:54;;;;;;;8.08;7.28;;;;;;;29.25;40.19;100040.41;1757274;80;21015;-72
2021/07/25 10:08:21;;;;;;;7.45;6.75;;;;;;;29.25;40.17;100028.09;1754380;80;22335;-71
2021/07/25 10:10:52;;;;;;;8.00;7.25;;;;;;;29.18;40.36;100012.55;1754779;80;21077;-72
2021/07/25 10:13:23;;;;;;;7.92;7.22;;;;;;;29.26;40.35;100019.33;1761901;79;21043;-72
2021/07/25 10:15:58;;;;;;;7.42;6.83;;;;;;;29.26;40.25;100017.96;1694306;82;21089;-70
2021/07/25 10:18:26;;;;;;;7.22;6.62;;;;;;;29.26;40.26;100020.14;1752228;80;21071;-71
2021/07/25 10:20:57;;;;;;;8.00;7.20;;;;;;;29.26;40.28;100019.33;1764946;80;21562;-71
2021/07/25 10:23:34;;;;;;;7.78;7.08;;;;;;;29.26;40.21;100021.50;1750796;79;21148;-72
2021/07/25 10:26:03;;;;;;;8.18;7.47;;;;;;;29.26;40.27;100021.50;1759610;79;21014;-71
2021/07/25 10:28:30;;;;;;;7.22;6.45;;;;;;;29.24;40.35;100020.98;1738799;79;21094;-71
2021/07/25 10:30:58;;;;;;;7.92;7.00;;;;;;;29.25;40.22;100028.09;1772148;79;21079;-70
2021/07/25 10:33:27;;;;;;;7.42;6.80;;;;;;;29.25;40.12;100025.36;1775095;79;21158;-71
2021/07/25 10:35:56;;;;;;;29.98;8.15;;;;;;;29.24;39.96;100032.48;1750736;79;21026;-72
2021/07/25 10:38:22;;;;;;;40.58;9.70;;;;;;;29.24;39.99;100023.71;1769996;79;21007;-76
2021/07/25 10:40:51;;;;;;;52.17;10.48;;;;;;;29.23;40.05;100024.83;1755353;79;21057;-75
2021/07/25 10:43:23;;;;;;;44.63;8.88;;;;;;;29.24;40.31;100025.64;1729297;81;21008;-75
2021/07/25 10:46:17;;;;;;;33.48;8.78;;;;;;;29.26;40.57;100024.80;1796505;79;21792;-76
2021/07/25 10:49:05;;;;;;;13.40;7.65;;;;;;;29.26;40.46;100032.45;1778481;79;21053;-75
2021/07/25 10:51:33;;;;;;;45.90;9.90;;;;;;;29.26;39.64;100035.19;1763763;79;21073;-74
2021/07/25 10:54:25;;;;;;;46.53;10.65;;;;;;;29.28;40.03;100037.64;1774262;79;21089;-74
2021/07/25 10:57:12;;;;;;;17.20;7.70;;;;;;;29.30;40.54;100038.17;1764521;80;21120;-70
2021/07/25 10:59:52;;;;;;;21.17;9.45;;;;;;;29.32;40.43;100034.06;1782149;79;21041;-71
2021/07/25 11:02:29;;;;;;;12.43;7.55;;;;;;;29.35;40.94;100036.21;1752066;80;21085;-70
2021/07/25 11:05:03;;;;;;;161.45;52.83;;;;;;;29.36;42.17;100033.75;1768578;80;21098;-68
2021/07/25 11:07:33;;;;;;;19.95;13.65;;;;;;;28.78;100.00;100043.97;1768253;79;21038;-69
2021/07/25 11:10:11;;;;;;;13.18;9.58;;;;;;;28.48;100.00;100043.53;1763064;80;21022;-73
2021/07/25 11:12:56;;;;;;;12.30;8.65;;;;;;;28.00;100.00;100039.86;1753690;79;21589;-76
2021/07/25 11:15:32;;;;;;;12.23;7.95;;;;;;;27.71;100.00;100035.52;1759894;79;21108;-72
2021/07/25 11:18:15;;;;;;;46.08;17.12;;;;;;;27.63;100.00;100030.06;1739453;80;21082;-78
2021/07/25 11:20:59;;;;;;;13.72;9.08;;;;;;;27.76;100.00;100033.34;1764027;79;21043;-77
2021/07/25 11:23:33;;;;;;;12.53;8.50;;;;;;;27.97;72.70;100032.77;1757596;79;21046;-80
2021/07/25 11:25:59;;;;;;;9.55;8.18;;;;;;;28.15;58.77;100030.01;1757106;79;21167;-81
2021/07/25 11:28:42;;;;;;;10.10;8.23;;;;;;;28.28;53.88;100025.31;1763734;80;21034;-80
2021/07/25 11:31:10;;;;;;;9.28;8.35;;;;;;;28.40;51.18;100021.70;1745137;80;21009;-72